sensor_id;sensor_type;location;lat;lon;timestamp;pressure;altitude;pressure_sealevel;temperature;humidity
22964;BME280;11648;49.306;6.934;2022-10-18T00:00:16;99207.88;;;23.44;67.75
22964;BME280;11648;49.306;6.934;2022-10-18T00:02:43;99212.47;;;23.42;67.79
22964;BME280;11648;49.306;6.934;2022-10-18T00:05:10;99216.66;;;23.47;67.62
22964;BME280;11648;49.306;6.934;2022-10-18T00:07:37;99218.22;;;23.51;67.94
22964;BME280;11648;49.306;6.934;2022-10-18T00:10:04;99210.94;;;23.53;68.00
22964;BME280;11648;49.306;6.934;2022-10-18T00:12:33;99216.09;;;23.58;67.55
22964;BME280;11648;49.306;6.934;2022-10-18T00:15:00;99226.78;;;23.59;67.37
22964;BME280;11648;49.306;6.934;2022-10-18T00:17:27;99217.13;;;23.55;67.70
22964;BME280;11648;49.306;6.934;2022-10-18T00:19:54;99218.13;;;23.53;67.55
22964;BME280;11648;49.306;6.934;2022-10-18T00:22:21;99224.50;;;23.52;67.97
22964;BME280;11648;49.306;6.934;2022-10-18T00:24:48;99221.97;;;23.49;67.77
22964;BME280;11648;49.306;6.934;2022-10-18T00:27:15;99219.00;;;23.53;67.56
22964;BME280;11648;49.306;6.934;2022-10-18T00:29:42;99213.81;;;23.50;67.62
22964;BME280;11648;49.306;6.934;2022-10-18T00:32:08;99211.34;;;23.46;68.11
22964;BME280;11648;49.306;6.934;2022-10-18T00:34:38;99207.72;;;23.47;68.10
22964;BME280;11648;49.306;6.934;2022-10-18T00:37:05;99198.59;;;23.49;67.94
22964;BME280;11648;49.306;6.934;2022-10-18T00:39:33;99196.34;;;23.42;68.27
22964;BME280;11648;49.306;6.934;2022-10-18T00:41:59;99197.06;;;23.45;68.08
22964;BME280;11648;49.306;6.934;2022-10-18T00:47:02;99192.41;;;23.49;67.74
22964;BME280;11648;49.306;6.934;2022-10-18T00:49:33;99190.31;;;23.54;67.59
22964;BME280;11648;49.306;6.934;2022-10-18T00:52:08;99188.44;;;23.56;67.71
22964;BME280;11648;49.306;6.934;2022-10-18T00:54:39;99178.63;;;23.55;68.30
22964;BME280;11648;49.306;6.934;2022-10-18T00:57:07;99181.22;;;23.56;67.90
22964;BME280;11648;49.306;6.934;2022-10-18T00:59:35;99217.63;;;23.64;67.74
22964;BME280;11648;49.306;6.934;2022-10-18T01:02:03;99261.28;;;23.14;69.53
22964;BME280;11648;49.306;6.934;2022-10-18T01:04:31;99245.25;;;23.12;70.84
22964;BME280;11648;49.306;6.934;2022-10-18T01:15:13;99249.47;;;23.35;70.21
22964;BME280;11648;49.306;6.934;2022-10-18T01:31:34;99220.22;;;23.29;70.60
22964;BME280;11648;49.306;6.934;2022-10-18T01:34:07;99224.50;;;23.33;70.76
22964;BME280;11648;49.306;6.934;2022-10-18T01:36:41;99213.75;;;23.33;71.27
22964;BME280;11648;49.306;6.934;2022-10-18T01:39:19;99220.34;;;23.28;71.43
22964;BME280;11648;49.306;6.934;2022-10-18T01:41:48;99207.13;;;23.23;70.93
22964;BME280;11648;49.306;6.934;2022-10-18T01:44:22;99204.00;;;23.13;71.41
22964;BME280;11648;49.306;6.934;2022-10-18T01:46:54;99207.09;;;23.06;71.72
22964;BME280;11648;49.306;6.934;2022-10-18T01:49:23;99203.81;;;22.99;72.08
22964;BME280;11648;49.306;6.934;2022-10-18T01:51:50;99194.69;;;22.85;72.55
22964;BME280;11648;49.306;6.934;2022-10-18T01:54:21;99198.34;;;22.84;73.03
22964;BME280;11648;49.306;6.934;2022-10-18T01:56:57;99196.00;;;22.95;72.81
22964;BME280;11648;49.306;6.934;2022-10-18T02:00:10;99199.06;;;22.87;72.63
22964;BME280;11648;49.306;6.934;2022-10-18T02:05:27;99198.00;;;22.73;72.45
22964;BME280;11648;49.306;6.934;2022-10-18T02:08:05;99193.56;;;22.72;72.53
22964;BME280;11648;49.306;6.934;2022-10-18T02:10:56;99190.22;;;22.67;72.50
22964;BME280;11648;49.306;6.934;2022-10-18T02:13:28;99194.38;;;22.74;72.63
22964;BME280;11648;49.306;6.934;2022-10-18T02:16:00;99187.25;;;22.73;72.57
22964;BME280;11648;49.306;6.934;2022-10-18T02:18:35;99190.00;;;22.71;72.10
22964;BME280;11648;49.306;6.934;2022-10-18T02:21:07;99181.28;;;22.66;72.34
22964;BME280;11648;49.306;6.934;2022-10-18T02:23:37;99175.09;;;22.64;72.63
22964;BME280;11648;49.306;6.934;2022-10-18T02:26:04;99188.34;;;22.69;72.17
22964;BME280;11648;49.306;6.934;2022-10-18T02:28:32;99204.16;;;22.75;72.05
22964;BME280;11648;49.306;6.934;2022-10-18T02:33:36;99192.09;;;22.64;72.00
22964;BME280;11648;49.306;6.934;2022-10-18T02:36:11;99191.97;;;22.68;72.28
22964;BME280;11648;49.306;6.934;2022-10-18T02:38:40;99191.09;;;22.67;72.56
22964;BME280;11648;49.306;6.934;2022-10-18T02:41:07;99182.44;;;22.60;72.47
22964;BME280;11648;49.306;6.934;2022-10-18T02:43:34;99187.09;;;22.57;72.54
22964;BME280;11648;49.306;6.934;2022-10-18T02:46:01;99186.28;;;22.55;72.07
22964;BME280;11648;49.306;6.934;2022-10-18T02:48:28;99183.69;;;22.53;71.86
22964;BME280;11648;49.306;6.934;2022-10-18T02:50:55;99183.16;;;22.45;72.15
22964;BME280;11648;49.306;6.934;2022-10-18T02:53:21;99193.47;;;22.36;72.38
22964;BME280;11648;49.306;6.934;2022-10-18T02:55:48;99198.63;;;22.40;72.33
22964;BME280;11648;49.306;6.934;2022-10-18T02:58:15;99195.28;;;22.35;71.77
22964;BME280;11648;49.306;6.934;2022-10-18T03:00:41;99200.78;;;22.32;71.67
22964;BME280;11648;49.306;6.934;2022-10-18T03:03:08;99201.00;;;22.28;71.85
22964;BME280;11648;49.306;6.934;2022-10-18T03:05:35;99194.84;;;22.26;72.01
22964;BME280;11648;49.306;6.934;2022-10-18T03:08:02;99193.09;;;22.25;71.91
22964;BME280;11648;49.306;6.934;2022-10-18T03:10:28;99193.09;;;22.25;72.18
22964;BME280;11648;49.306;6.934;2022-10-18T03:12:55;99196.66;;;22.25;72.03
22964;BME280;11648;49.306;6.934;2022-10-18T03:15:22;99202.69;;;22.30;72.35
22964;BME280;11648;49.306;6.934;2022-10-18T03:17:48;99210.75;;;22.30;72.08
22964;BME280;11648;49.306;6.934;2022-10-18T03:20:15;99216.97;;;22.31;71.81
22964;BME280;11648;49.306;6.934;2022-10-18T03:22:41;99211.72;;;22.28;72.14
22964;BME280;11648;49.306;6.934;2022-10-18T03:25:08;99218.91;;;22.27;71.98
22964;BME280;11648;49.306;6.934;2022-10-18T03:27:35;99229.50;;;22.30;72.51
22964;BME280;11648;49.306;6.934;2022-10-18T03:30:02;99220.28;;;22.36;72.34
22964;BME280;11648;49.306;6.934;2022-10-18T03:32:31;99215.50;;;22.42;71.32
22964;BME280;11648;49.306;6.934;2022-10-18T03:34:58;99229.59;;;22.47;71.61
22964;BME280;11648;49.306;6.934;2022-10-18T03:37:24;99230.31;;;22.51;71.79
22964;BME280;11648;49.306;6.934;2022-10-18T03:39:51;99232.78;;;22.55;71.67
22964;BME280;11648;49.306;6.934;2022-10-18T03:42:18;99236.94;;;22.62;71.99
22964;BME280;11648;49.306;6.934;2022-10-18T03:44:44;99242.31;;;22.62;71.89
22964;BME280;11648;49.306;6.934;2022-10-18T03:47:11;99247.66;;;22.62;71.79
22964;BME280;11648;49.306;6.934;2022-10-18T03:49:38;99246.38;;;22.71;71.62
22964;BME280;11648;49.306;6.934;2022-10-18T03:52:05;99254.22;;;22.76;71.54
22964;BME280;11648;49.306;6.934;2022-10-18T03:54:31;99253.34;;;22.75;71.53
22964;BME280;11648;49.306;6.934;2022-10-18T03:56:58;99257.06;;;22.73;71.42
22964;BME280;11648;49.306;6.934;2022-10-18T03:59:25;99254.22;;;22.76;71.57
22964;BME280;11648;49.306;6.934;2022-10-18T04:01:52;99258.00;;;22.72;71.53
22964;BME280;11648;49.306;6.934;2022-10-18T04:04:18;99260.47;;;22.76;71.69
22964;BME280;11648;49.306;6.934;2022-10-18T04:06:45;99264.03;;;22.77;71.63
22964;BME280;11648;49.306;6.934;2022-10-18T04:09:12;99251.69;;;22.73;71.63
22964;BME280;11648;49.306;6.934;2022-10-18T04:11:39;99263.22;;;22.75;71.44
22964;BME280;11648;49.306;6.934;2022-10-18T04:14:05;99261.09;;;22.81;71.31
22964;BME280;11648;49.306;6.934;2022-10-18T04:16:32;99266.97;;;22.89;71.39
22964;BME280;11648;49.306;6.934;2022-10-18T04:18:59;99269.25;;;22.98;70.74
22964;BME280;11648;49.306;6.934;2022-10-18T04:21:25;99269.16;;;23.00;71.15
22964;BME280;11648;49.306;6.934;2022-10-18T04:23:52;99275.50;;;22.99;70.57
22964;BME280;11648;49.306;6.934;2022-10-18T04:26:19;99280.91;;;22.97;71.25
22964;BME280;11648;49.306;6.934;2022-10-18T04:28:45;99279.25;;;22.95;71.18
22964;BME280;11648;49.306;6.934;2022-10-18T04:31:12;99266.97;;;22.89;71.28
22964;BME280;11648;49.306;6.934;2022-10-18T04:33:39;99267.72;;;22.93;71.61
22964;BME280;11648;49.306;6.934;2022-10-18T04:36:06;99242.75;;;22.91;71.86
22964;BME280;11648;49.306;6.934;2022-10-18T04:38:33;99235.06;;;22.83;72.27
22964;BME280;11648;49.306;6.934;2022-10-18T04:40:59;99227.31;;;22.77;72.51
22964;BME280;11648;49.306;6.934;2022-10-18T04:43:26;99218.22;;;22.80;72.63
22964;BME280;11648;49.306;6.934;2022-10-18T04:45:53;99197.84;;;22.76;72.49
22964;BME280;11648;49.306;6.934;2022-10-18T04:48:19;99217.06;;;22.67;72.71
22964;BME280;11648;49.306;6.934;2022-10-18T04:50:47;99222.06;;;22.74;72.92
22964;BME280;11648;49.306;6.934;2022-10-18T04:53:16;99229.84;;;22.80;72.43
22964;BME280;11648;49.306;6.934;2022-10-18T04:55:44;99232.94;;;22.90;72.71
22964;BME280;11648;49.306;6.934;2022-10-18T04:58:11;99224.47;;;22.80;72.88
22964;BME280;11648;49.306;6.934;2022-10-18T05:00:38;99224.31;;;22.83;72.81
22964;BME280;11648;49.306;6.934;2022-10-18T05:03:06;99230.56;;;22.84;73.07
22964;BME280;11648;49.306;6.934;2022-10-18T05:05:33;99242.75;;;22.91;72.57
22964;BME280;11648;49.306;6.934;2022-10-18T05:08:19;99247.09;;;22.93;72.64
22964;BME280;11648;49.306;6.934;2022-10-18T05:10:46;99255.88;;;22.97;72.02
22964;BME280;11648;49.306;6.934;2022-10-18T05:13:13;99258.78;;;22.92;72.14
22964;BME280;11648;49.306;6.934;2022-10-18T05:15:39;99254.28;;;22.93;72.05
22964;BME280;11648;49.306;6.934;2022-10-18T05:18:06;99262.44;;;22.91;72.02
22964;BME280;11648;49.306;6.934;2022-10-18T05:20:33;99255.97;;;22.95;72.42
22964;BME280;11648;49.306;6.934;2022-10-18T05:22:59;99257.13;;;22.90;72.33
22964;BME280;11648;49.306;6.934;2022-10-18T05:25:26;99264.97;;;22.94;71.90
22964;BME280;11648;49.306;6.934;2022-10-18T05:27:52;99273.88;;;22.95;71.80
22964;BME280;11648;49.306;6.934;2022-10-18T05:30:19;99275.75;;;22.93;72.08
22964;BME280;11648;49.306;6.934;2022-10-18T05:32:47;99293.84;;;22.89;72.19
22964;BME280;11648;49.306;6.934;2022-10-18T05:35:14;99284.91;;;22.89;71.28
22964;BME280;11648;49.306;6.934;2022-10-18T05:37:40;99289.63;;;22.84;71.75
22964;BME280;11648;49.306;6.934;2022-10-18T05:40:08;99298.63;;;22.83;71.80
22964;BME280;11648;49.306;6.934;2022-10-18T05:42:35;99298.13;;;22.75;72.07
22964;BME280;11648;49.306;6.934;2022-10-18T05:45:02;99301.53;;;22.78;72.04
22964;BME280;11648;49.306;6.934;2022-10-18T05:47:29;99300.66;;;22.78;71.86
22964;BME280;11648;49.306;6.934;2022-10-18T05:49:56;99294.91;;;22.67;72.65
22964;BME280;11648;49.306;6.934;2022-10-18T05:52:23;99305.22;;;22.76;72.11
22964;BME280;11648;49.306;6.934;2022-10-18T05:54:50;99295.56;;;22.72;72.02
22964;BME280;11648;49.306;6.934;2022-10-18T05:57:16;99297.19;;;22.76;72.15
22964;BME280;11648;49.306;6.934;2022-10-18T05:59:43;99290.94;;;22.75;72.23
22964;BME280;11648;49.306;6.934;2022-10-18T06:02:11;99290.00;;;22.76;72.37
22964;BME280;11648;49.306;6.934;2022-10-18T06:04:37;99300.88;;;22.73;71.90
22964;BME280;11648;49.306;6.934;2022-10-18T06:07:10;99302.97;;;22.67;72.61
22964;BME280;11648;49.306;6.934;2022-10-18T06:09:37;99301.75;;;22.53;73.15
22964;BME280;11648;49.306;6.934;2022-10-18T06:12:04;99302.69;;;22.52;73.02
22964;BME280;11648;49.306;6.934;2022-10-18T06:14:31;99305.25;;;22.55;72.91
22964;BME280;11648;49.306;6.934;2022-10-18T06:16:58;99306.69;;;22.44;73.36
22964;BME280;11648;49.306;6.934;2022-10-18T06:19:24;99310.97;;;22.48;73.31
22964;BME280;11648;49.306;6.934;2022-10-18T06:21:51;99304.66;;;22.49;73.42
22964;BME280;11648;49.306;6.934;2022-10-18T06:24:18;99318.16;;;22.47;73.97
22964;BME280;11648;49.306;6.934;2022-10-18T06:26:46;99306.47;;;22.48;73.43
22964;BME280;11648;49.306;6.934;2022-10-18T06:29:13;99318.88;;;22.51;73.68
22964;BME280;11648;49.306;6.934;2022-10-18T06:31:40;99318.94;;;22.49;73.58
22964;BME280;11648;49.306;6.934;2022-10-18T06:34:07;99324.16;;;22.52;73.34
22964;BME280;11648;49.306;6.934;2022-10-18T06:36:33;99328.53;;;22.55;73.60
22964;BME280;11648;49.306;6.934;2022-10-18T06:39:00;99335.44;;;22.60;73.44
22964;BME280;11648;49.306;6.934;2022-10-18T06:41:27;99326.44;;;22.61;73.21
22964;BME280;11648;49.306;6.934;2022-10-18T06:44:00;99335.28;;;22.63;73.49
22964;BME280;11648;49.306;6.934;2022-10-18T06:46:32;99340.28;;;22.73;73.13
22964;BME280;11648;49.306;6.934;2022-10-18T06:48:59;99342.09;;;22.72;73.06
22964;BME280;11648;49.306;6.934;2022-10-18T06:51:25;99338.47;;;22.73;72.54
22964;BME280;11648;49.306;6.934;2022-10-18T06:53:52;99344.63;;;22.75;72.54
22964;BME280;11648;49.306;6.934;2022-10-18T06:56:38;99343.50;;;22.81;72.26
22964;BME280;11648;49.306;6.934;2022-10-18T06:59:05;99347.69;;;22.86;72.37
22964;BME280;11648;49.306;6.934;2022-10-18T07:01:32;99353.44;;;22.97;72.52
22964;BME280;11648;49.306;6.934;2022-10-18T07:03:58;99356.19;;;22.96;72.12
22964;BME280;11648;49.306;6.934;2022-10-18T07:06:26;99356.69;;;23.04;72.09
22964;BME280;11648;49.306;6.934;2022-10-18T07:08:52;99367.09;;;23.11;71.07
22964;BME280;11648;49.306;6.934;2022-10-18T07:11:24;99362.66;;;23.10;71.42
22964;BME280;11648;49.306;6.934;2022-10-18T07:13:52;99362.84;;;23.25;71.16
22964;BME280;11648;49.306;6.934;2022-10-18T07:16:20;99363.69;;;23.27;70.38
22964;BME280;11648;49.306;6.934;2022-10-18T07:18:48;99366.16;;;23.31;70.53
22964;BME280;11648;49.306;6.934;2022-10-18T07:21:18;99369.09;;;23.25;70.37
22964;BME280;11648;49.306;6.934;2022-10-18T07:23:45;99361.25;;;23.39;69.55
22964;BME280;11648;49.306;6.934;2022-10-18T07:28:43;99376.31;;;23.43;69.49
22964;BME280;11648;49.306;6.934;2022-10-18T07:31:11;99382.91;;;23.36;69.30
22964;BME280;11648;49.306;6.934;2022-10-18T07:33:38;99382.84;;;23.38;69.27
22964;BME280;11648;49.306;6.934;2022-10-18T07:36:06;99379.34;;;23.36;69.49
22964;BME280;11648;49.306;6.934;2022-10-18T07:38:34;99376.59;;;23.37;69.41
22964;BME280;11648;49.306;6.934;2022-10-18T07:41:03;99387.13;;;23.23;69.11
22964;BME280;11648;49.306;6.934;2022-10-18T07:43:32;99384.44;;;23.23;69.51
22964;BME280;11648;49.306;6.934;2022-10-18T07:46:01;99380.16;;;23.19;69.75
22964;BME280;11648;49.306;6.934;2022-10-18T07:48:28;99389.09;;;23.20;69.55
22964;BME280;11648;49.306;6.934;2022-10-18T07:50:59;99392.03;;;23.13;69.92
22964;BME280;11648;49.306;6.934;2022-10-18T07:53:27;99394.47;;;23.20;69.95
22964;BME280;11648;49.306;6.934;2022-10-18T07:56:01;99404.03;;;23.25;69.62
22964;BME280;11648;49.306;6.934;2022-10-18T07:58:34;99411.22;;;23.25;69.55
22964;BME280;11648;49.306;6.934;2022-10-18T08:01:03;99402.28;;;23.24;69.14
22964;BME280;11648;49.306;6.934;2022-10-18T08:03:30;99416.38;;;23.29;69.43
22964;BME280;11648;49.306;6.934;2022-10-18T08:05:57;99409.13;;;23.31;69.06
22964;BME280;11648;49.306;6.934;2022-10-18T08:08:24;99411.88;;;23.30;68.96
22964;BME280;11648;49.306;6.934;2022-10-18T08:10:51;99416.25;;;23.32;69.16
22964;BME280;11648;49.306;6.934;2022-10-18T08:13:18;99416.09;;;23.17;69.86
22964;BME280;11648;49.306;6.934;2022-10-18T08:15:46;99420.25;;;23.24;69.63
22964;BME280;11648;49.306;6.934;2022-10-18T08:18:13;99421.84;;;23.09;69.56
22964;BME280;11648;49.306;6.934;2022-10-18T08:20:43;99419.00;;;23.12;69.39
22964;BME280;11648;49.306;6.934;2022-10-18T08:23:11;99425.09;;;23.16;69.64
22964;BME280;11648;49.306;6.934;2022-10-18T08:25:37;99431.59;;;23.10;69.70
22964;BME280;11648;49.306;6.934;2022-10-18T08:28:05;99437.44;;;23.20;69.19
22964;BME280;11648;49.306;6.934;2022-10-18T08:30:33;99438.19;;;23.23;69.13
22964;BME280;11648;49.306;6.934;2022-10-18T08:33:00;99437.72;;;23.32;68.66
22964;BME280;11648;49.306;6.934;2022-10-18T08:35:26;99442.84;;;23.38;68.30
22964;BME280;11648;49.306;6.934;2022-10-18T08:37:53;99435.72;;;23.37;68.68
22964;BME280;11648;49.306;6.934;2022-10-18T08:40:20;99439.88;;;23.44;68.29
22964;BME280;11648;49.306;6.934;2022-10-18T08:43:06;99433.06;;;23.56;67.71
22964;BME280;11648;49.306;6.934;2022-10-18T08:45:37;99436.47;;;23.59;67.77
22964;BME280;11648;49.306;6.934;2022-10-18T08:48:49;99437.75;;;23.70;67.02
22964;BME280;11648;49.306;6.934;2022-10-18T08:51:23;99441.00;;;23.95;66.58
22964;BME280;11648;49.306;6.934;2022-10-18T08:53:58;99438.69;;;24.23;65.39
22964;BME280;11648;49.306;6.934;2022-10-18T08:56:28;99434.84;;;24.46;64.47
22964;BME280;11648;49.306;6.934;2022-10-18T08:58:54;99441.06;;;24.81;63.47
22964;BME280;11648;49.306;6.934;2022-10-18T09:04:14;99442.94;;;24.79;62.56
22964;BME280;11648;49.306;6.934;2022-10-18T09:20:27;99452.72;;;24.11;64.36
22964;BME280;11648;49.306;6.934;2022-10-18T09:22:58;99456.47;;;23.90;64.96
22964;BME280;11648;49.306;6.934;2022-10-18T09:31:20;99455.91;;;23.83;65.61
22964;BME280;11648;49.306;6.934;2022-10-18T09:34:10;99455.19;;;23.80;65.56
22964;BME280;11648;49.306;6.934;2022-10-18T09:36:39;99451.94;;;23.73;65.80
22964;BME280;11648;49.306;6.934;2022-10-18T09:39:13;99457.50;;;23.87;65.75
22964;BME280;11648;49.306;6.934;2022-10-18T09:41:49;99454.50;;;23.93;65.69
22964;BME280;11648;49.306;6.934;2022-10-18T09:44:21;99454.78;;;24.06;65.79
22964;BME280;11648;49.306;6.934;2022-10-18T09:46:58;99461.47;;;24.16;64.80
22964;BME280;11648;49.306;6.934;2022-10-18T09:49:29;99461.34;;;24.36;64.42
22964;BME280;11648;49.306;6.934;2022-10-18T09:52:02;99452.25;;;24.56;64.03
22964;BME280;11648;49.306;6.934;2022-10-18T09:54:36;99458.97;;;24.47;62.64
22964;BME280;11648;49.306;6.934;2022-10-18T09:57:12;99464.19;;;24.33;63.12
22964;BME280;11648;49.306;6.934;2022-10-18T09:59:42;99462.38;;;24.34;63.45
22964;BME280;11648;49.306;6.934;2022-10-18T10:02:13;99461.81;;;24.27;63.68
22964;BME280;11648;49.306;6.934;2022-10-18T10:04:40;99472.03;;;24.38;63.66
22964;BME280;11648;49.306;6.934;2022-10-18T10:07:11;99472.59;;;24.27;63.15
22964;BME280;11648;49.306;6.934;2022-10-18T10:09:55;99474.78;;;24.36;63.29
22964;BME280;11648;49.306;6.934;2022-10-18T10:12:31;99474.34;;;24.28;63.34
22964;BME280;11648;49.306;6.934;2022-10-18T10:15:18;99472.09;;;24.19;63.19
22964;BME280;11648;49.306;6.934;2022-10-18T10:18:07;99474.47;;;24.25;63.20
22964;BME280;11648;49.306;6.934;2022-10-18T10:20:45;99470.50;;;24.32;62.69
22964;BME280;11648;49.306;6.934;2022-10-18T10:23:18;99480.28;;;24.35;62.73
22964;BME280;11648;49.306;6.934;2022-10-18T10:25:52;99473.56;;;24.61;61.86
22964;BME280;11648;49.306;6.934;2022-10-18T10:28:26;99488.50;;;24.66;61.21
22964;BME280;11648;49.306;6.934;2022-10-18T10:33:45;99473.78;;;24.90;60.97
22964;BME280;11648;49.306;6.934;2022-10-18T10:36:17;99472.31;;;24.85;61.47
22964;BME280;11648;49.306;6.934;2022-10-18T10:38:45;99473.31;;;24.99;60.78
22964;BME280;11648;49.306;6.934;2022-10-18T10:41:20;99474.91;;;25.19;60.26
22964;BME280;11648;49.306;6.934;2022-10-18T10:43:47;99472.72;;;25.43;60.47
22964;BME280;11648;49.306;6.934;2022-10-18T10:46:16;99468.50;;;25.70;59.82
22964;BME280;11648;49.306;6.934;2022-10-18T10:51:11;99471.03;;;25.89;58.23
22964;BME280;11648;49.306;6.934;2022-10-18T10:54:04;99473.38;;;25.95;57.42
22964;BME280;11648;49.306;6.934;2022-10-18T10:56:48;99472.25;;;25.99;57.57
22964;BME280;11648;49.306;6.934;2022-10-18T10:59:19;99473.22;;;25.82;57.67
22964;BME280;11648;49.306;6.934;2022-10-18T11:01:46;99484.78;;;25.69;58.27
22964;BME280;11648;49.306;6.934;2022-10-18T11:04:29;99478.44;;;25.54;58.55
22964;BME280;11648;49.306;6.934;2022-10-18T11:12:21;99483.63;;;24.91;59.56
22964;BME280;11648;49.306;6.934;2022-10-18T11:15:02;99490.97;;;24.71;60.68
22964;BME280;11648;49.306;6.934;2022-10-18T11:25:24;99480.44;;;24.83;61.00
22964;BME280;11648;49.306;6.934;2022-10-18T11:28:00;99481.41;;;24.99;60.44
22964;BME280;11648;49.306;6.934;2022-10-18T11:30:48;99484.63;;;25.39;59.84
22964;BME280;11648;49.306;6.934;2022-10-18T11:36:44;99471.47;;;25.66;59.30
22964;BME280;11648;49.306;6.934;2022-10-18T12:01:42;99461.03;;;24.77;61.77
22964;BME280;11648;49.306;6.934;2022-10-18T12:04:18;99465.94;;;24.69;62.27
22964;BME280;11648;49.306;6.934;2022-10-18T12:06:49;99462.84;;;24.76;62.67
22964;BME280;11648;49.306;6.934;2022-10-18T12:09:45;99463.72;;;24.77;62.89
22964;BME280;11648;49.306;6.934;2022-10-18T12:12:24;99457.44;;;24.76;62.97
22964;BME280;11648;49.306;6.934;2022-10-18T12:14:56;99455.47;;;24.80;63.00
22964;BME280;11648;49.306;6.934;2022-10-18T12:17:27;99454.69;;;24.78;62.42
22964;BME280;11648;49.306;6.934;2022-10-18T12:23:01;99449.22;;;24.96;62.56
22964;BME280;11648;49.306;6.934;2022-10-18T12:25:32;99455.22;;;25.01;61.62
22964;BME280;11648;49.306;6.934;2022-10-18T12:28:24;99449.06;;;24.99;60.41
22964;BME280;11648;49.306;6.934;2022-10-18T12:33:36;99457.69;;;25.06;61.35
22964;BME280;11648;49.306;6.934;2022-10-18T12:38:52;99451.06;;;24.96;61.48
22964;BME280;11648;49.306;6.934;2022-10-18T12:41:31;99453.59;;;24.82;62.14
22964;BME280;11648;49.306;6.934;2022-10-18T12:44:04;99450.81;;;24.83;62.07
22964;BME280;11648;49.306;6.934;2022-10-18T12:49:11;99449.16;;;24.64;62.81
22964;BME280;11648;49.306;6.934;2022-10-18T12:51:55;99451.84;;;24.64;63.48
22964;BME280;11648;49.306;6.934;2022-10-18T12:54:36;99456.75;;;24.55;63.29
22964;BME280;11648;49.306;6.934;2022-10-18T12:57:05;99447.88;;;24.53;63.26
22964;BME280;11648;49.306;6.934;2022-10-18T12:59:43;99451.28;;;24.40;63.92
22964;BME280;11648;49.306;6.934;2022-10-18T13:02:22;99439.19;;;24.48;63.76
22964;BME280;11648;49.306;6.934;2022-10-18T13:04:49;99443.91;;;24.43;63.69
22964;BME280;11648;49.306;6.934;2022-10-18T13:07:36;99438.25;;;24.49;64.02
22964;BME280;11648;49.306;6.934;2022-10-18T13:15:28;99436.47;;;24.66;63.06
22964;BME280;11648;49.306;6.934;2022-10-18T13:18:30;99438.56;;;24.61;62.36
22964;BME280;11648;49.306;6.934;2022-10-18T13:21:19;99433.31;;;24.75;61.92
22964;BME280;11648;49.306;6.934;2022-10-18T13:24:03;99430.28;;;24.81;62.68
22964;BME280;11648;49.306;6.934;2022-10-18T13:32:52;99439.41;;;25.11;61.46
22964;BME280;11648;49.306;6.934;2022-10-18T13:38:40;99438.88;;;24.89;61.66
22964;BME280;11648;49.306;6.934;2022-10-18T13:43:55;99436.19;;;25.04;61.68
22964;BME280;11648;49.306;6.934;2022-10-18T14:06:20;99443.81;;;25.29;59.68
22964;BME280;11648;49.306;6.934;2022-10-18T14:14:53;99446.50;;;25.29;59.68
22964;BME280;11648;49.306;6.934;2022-10-18T14:17:41;99440.69;;;25.21;59.93
22964;BME280;11648;49.306;6.934;2022-10-18T14:20:19;99445.25;;;25.03;61.13
22964;BME280;11648;49.306;6.934;2022-10-18T14:23:01;99442.09;;;24.95;60.68
22964;BME280;11648;49.306;6.934;2022-10-18T14:25:33;99450.19;;;24.95;61.24
22964;BME280;11648;49.306;6.934;2022-10-18T14:28:18;99441.69;;;25.03;60.84
22964;BME280;11648;49.306;6.934;2022-10-18T14:31:04;99445.25;;;24.86;61.42
22964;BME280;11648;49.306;6.934;2022-10-18T14:38:26;99450.72;;;25.02;61.33
22964;BME280;11648;49.306;6.934;2022-10-18T14:41:22;99443.41;;;25.04;61.60
22964;BME280;11648;49.306;6.934;2022-10-18T14:43:50;99442.00;;;24.97;61.77
22964;BME280;11648;49.306;6.934;2022-10-18T14:46:23;99438.69;;;24.92;62.16
22964;BME280;11648;49.306;6.934;2022-10-18T14:48:58;99444.97;;;24.92;62.32
22964;BME280;11648;49.306;6.934;2022-10-18T14:51:29;99434.78;;;24.80;62.62
22964;BME280;11648;49.306;6.934;2022-10-18T14:53:58;99444.16;;;24.90;62.60
22964;BME280;11648;49.306;6.934;2022-10-18T14:58:54;99433.72;;;24.84;61.81
22964;BME280;11648;49.306;6.934;2022-10-18T15:01:23;99428.31;;;24.84;61.96
22964;BME280;11648;49.306;6.934;2022-10-18T15:04:04;99433.75;;;24.83;62.22
22964;BME280;11648;49.306;6.934;2022-10-18T15:06:32;99432.03;;;24.82;61.92
22964;BME280;11648;49.306;6.934;2022-10-18T15:09:01;99433.75;;;24.83;61.56
22964;BME280;11648;49.306;6.934;2022-10-18T15:11:30;99436.06;;;24.73;60.88
22964;BME280;11648;49.306;6.934;2022-10-18T15:14:00;99432.34;;;24.58;60.77
22964;BME280;11648;49.306;6.934;2022-10-18T15:16:29;99441.78;;;24.50;60.67
22964;BME280;11648;49.306;6.934;2022-10-18T15:19:01;99446.00;;;24.38;61.15
22964;BME280;11648;49.306;6.934;2022-10-18T15:21:28;99445.72;;;24.26;61.88
22964;BME280;11648;49.306;6.934;2022-10-18T15:24:18;99441.91;;;24.13;63.11
22964;BME280;11648;49.306;6.934;2022-10-18T15:26:46;99445.50;;;24.13;62.91
22964;BME280;11648;49.306;6.934;2022-10-18T15:29:18;99449.31;;;24.07;63.67
22964;BME280;11648;49.306;6.934;2022-10-18T15:31:47;99443.38;;;24.01;63.98
22964;BME280;11648;49.306;6.934;2022-10-18T15:34:25;99442.09;;;23.91;63.94
22964;BME280;11648;49.306;6.934;2022-10-18T15:36:54;99445.88;;;23.87;64.40
22964;BME280;11648;49.306;6.934;2022-10-18T15:39:26;99442.63;;;23.80;65.55
22964;BME280;11648;49.306;6.934;2022-10-18T15:41:58;99432.91;;;23.78;65.51
22964;BME280;11648;49.306;6.934;2022-10-18T15:52:26;99432.09;;;23.57;66.23
22964;BME280;11648;49.306;6.934;2022-10-18T15:54:54;99436.13;;;23.48;66.39
22964;BME280;11648;49.306;6.934;2022-10-18T15:57:22;99433.81;;;23.39;66.17
22964;BME280;11648;49.306;6.934;2022-10-18T15:59:57;99429.53;;;23.35;66.38
22964;BME280;11648;49.306;6.934;2022-10-18T16:02:26;99434.25;;;23.30;66.79
22964;BME280;11648;49.306;6.934;2022-10-18T16:04:53;99427.28;;;23.26;66.69
22964;BME280;11648;49.306;6.934;2022-10-18T16:07:20;99421.34;;;23.20;66.53